KGGP

Logansport / Cass County Airport

Logansport, Indiana, USA
METAR KGGP 250055Z AUTO 00000KT 10SM CLR 24/07 A3007 RMK AO2
Observed Flight Rules
May-25 @ 00:55 UTC (7 minutes ago) Visual Flight Rules
Visibility Clouds
10 miles
  • Clear skies
Temperatures Readings
Current 24°C / 75°F
Dewpoint 7°C / 45°F
Humidity 34%
Altimeter 30.07" Hg
Pressure 1018 hPa
Elevation 225
METAR KGGP 250055Z AUTO 00000KT 10SM CLR 24/07 A3007 RMK AO2
Observed Flight Rules
May-25 @ 00:55 UTC
(7 minutes ago)
VFR
Clouds
  • Clear skies
Temperature Dewpoint
24°C / 75°F 7°C / 45°F
Humidity Altimeter Pressure
34% 30.07" Hg 1018 hPa